createdAt,value
2018-03-14T00:01:23.012Z,97108.21
2018-03-14T00:03:52.634Z,97095.09
2018-03-14T00:06:24.209Z,97102.48
2018-03-14T00:08:54.515Z,97100.91
2018-03-14T00:11:25.245Z,97098.53
2018-03-14T00:13:55.991Z,97104.03
2018-03-14T00:16:25.691Z,97104.70
2018-03-14T00:18:55.409Z,97109.77
2018-03-14T00:21:29.208Z,97118.55
2018-03-14T00:24:03.014Z,97120.44
2018-03-14T00:26:32.711Z,97131.11
2018-03-14T00:29:02.421Z,97126.45
2018-03-14T00:31:32.834Z,97122.22
2018-03-14T00:34:02.520Z,97123.05
2018-03-14T00:36:32.153Z,97115.81
2018-03-14T00:39:02.024Z,97123.08
2018-03-14T00:41:33.615Z,97131.10
2018-03-14T00:44:06.406Z,97133.67
2018-03-14T00:46:36.457Z,97141.45
2018-03-14T00:49:09.666Z,97133.69
2018-03-14T00:51:39.557Z,97127.13
2018-03-14T00:54:09.922Z,97125.28
2018-03-14T00:56:39.934Z,97130.89
2018-03-14T00:59:09.822Z,97128.63
2018-03-14T01:01:39.703Z,97124.28
2018-03-14T01:04:11.342Z,97124.58
2018-03-14T01:06:41.117Z,97126.43
2018-03-14T01:09:12.347Z,97119.31
2018-03-14T01:11:55.724Z,97121.22
2018-03-14T01:14:41.854Z,97123.97
2018-03-14T01:17:15.566Z,97125.28
2018-03-14T01:19:48.783Z,97126.30
2018-03-14T01:22:18.678Z,97121.93
2018-03-14T01:24:48.800Z,97128.34
2018-03-14T01:27:18.518Z,97130.14
2018-03-14T01:29:48.276Z,97128.34
2018-03-14T01:32:18.074Z,97131.95
2018-03-14T01:34:47.786Z,97134.50
2018-03-14T01:37:17.462Z,97127.16
2018-03-14T01:39:47.207Z,97131.51
2018-03-14T01:42:16.710Z,97122.19
2018-03-14T01:44:47.249Z,97121.55
2018-03-14T01:47:17.874Z,97126.66
2018-03-14T01:49:48.226Z,97129.81
2018-03-14T01:52:17.741Z,97125.87
2018-03-14T01:54:48.136Z,97125.87
2018-03-14T01:57:17.802Z,97119.52
2018-03-14T01:59:47.655Z,97117.50
2018-03-14T02:02:18.711Z,97119.48
2018-03-14T02:04:48.413Z,97115.38
2018-03-14T02:07:17.993Z,97116.08
2018-03-14T02:09:47.575Z,97111.38
2018-03-14T02:12:17.409Z,97105.95
2018-03-14T02:14:47.209Z,97107.55
2018-03-14T02:17:17.476Z,97106.09
2018-03-14T02:19:47.021Z,97102.13
2018-03-14T02:22:16.691Z,97110.14
2018-03-14T02:24:48.031Z,97109.88
2018-03-14T02:27:17.871Z,97108.80
2018-03-14T02:29:48.186Z,97101.09
2018-03-14T02:32:17.890Z,97113.30
2018-03-14T02:34:48.282Z,97104.09
2018-03-14T02:37:17.810Z,97104.33
2018-03-14T02:39:47.337Z,97105.98
2018-03-14T02:42:20.797Z,97107.20
2018-03-14T02:44:50.866Z,97108.22
2018-03-14T02:47:22.063Z,97099.45
2018-03-14T02:49:52.304Z,97102.38
2018-03-14T02:52:22.716Z,97098.53
2018-03-14T02:54:53.057Z,97110.16
2018-03-14T02:57:24.574Z,97114.11
2018-03-14T02:59:54.329Z,97112.77
2018-03-14T03:02:23.893Z,97120.05
2018-03-14T03:04:53.558Z,97118.30
2018-03-14T03:07:23.065Z,97120.22
2018-03-14T03:09:52.573Z,97123.38
2018-03-14T03:12:22.572Z,97125.83
2018-03-14T03:14:53.699Z,97122.02
2018-03-14T03:17:23.296Z,97126.59
2018-03-14T03:19:53.051Z,97124.99
2018-03-14T03:22:23.459Z,97127.69
2018-03-14T03:24:53.583Z,97130.95
2018-03-14T03:27:25.075Z,97129.70
2018-03-14T03:29:56.118Z,97130.53
2018-03-14T03:32:27.617Z,97131.30
2018-03-14T03:34:57.863Z,97128.24
2018-03-14T03:37:29.577Z,97124.20
2018-03-14T03:40:01.863Z,97130.98
2018-03-14T03:42:31.709Z,97125.30
2018-03-14T03:45:04.988Z,97132.51
2018-03-14T03:47:34.586Z,97131.05
2018-03-14T03:50:04.511Z,97135.42
2018-03-14T03:52:34.499Z,97130.69
2018-03-14T03:55:05.062Z,97130.50
2018-03-14T03:57:35.120Z,97128.47
2018-03-14T04:00:05.449Z,97129.17
2018-03-14T04:02:35.943Z,97134.11
2018-03-14T04:05:06.110Z,97129.05
2018-03-14T04:07:37.666Z,97130.70
2018-03-14T04:10:07.726Z,97124.11
2018-03-14T04:12:38.839Z,97138.62
2018-03-14T04:15:09.228Z,97140.64
2018-03-14T04:17:39.278Z,97138.88
2018-03-14T04:20:09.445Z,97135.42
2018-03-14T04:22:39.265Z,97125.86
2018-03-14T04:25:08.960Z,97130.83
2018-03-14T04:27:38.761Z,97129.98
2018-03-14T04:30:08.290Z,97130.34
2018-03-14T04:32:37.904Z,97125.84
2018-03-14T04:35:07.803Z,97131.61
2018-03-14T04:37:37.495Z,97133.84
2018-03-14T04:40:07.115Z,97134.47
2018-03-14T04:42:36.716Z,97138.53
2018-03-14T04:45:06.450Z,97149.97
2018-03-14T04:47:36.067Z,97145.48
2018-03-14T04:50:05.761Z,97143.13
2018-03-14T04:52:36.289Z,97149.72
2018-03-14T04:55:06.211Z,97142.47
2018-03-14T04:57:35.851Z,97143.27
2018-03-14T05:00:06.428Z,97150.30
2018-03-14T05:02:36.050Z,97142.67
2018-03-14T05:05:05.758Z,97141.35
2018-03-14T05:07:35.378Z,97145.11
2018-03-14T05:10:05.157Z,97143.78
2018-03-14T05:12:44.086Z,97141.61
2018-03-14T05:15:13.759Z,97152.69
2018-03-14T05:17:44.326Z,97149.17
2018-03-14T05:20:14.150Z,97155.12
2018-03-14T05:22:43.738Z,97148.67
2018-03-14T05:25:13.447Z,97153.15
2018-03-14T05:27:44.950Z,97160.33
2018-03-14T05:30:18.161Z,97153.64
2018-03-14T05:32:47.965Z,97162.34
2018-03-14T05:35:19.834Z,97157.73
2018-03-14T05:37:51.940Z,97159.16
2018-03-14T05:40:33.074Z,97164.29
2018-03-14T05:43:03.224Z,97162.08
2018-03-14T05:45:34.083Z,97159.55
2018-03-14T05:48:03.699Z,97164.80
2018-03-14T05:50:33.325Z,97168.34
2018-03-14T05:53:03.534Z,97166.84
2018-03-14T05:55:33.358Z,97171.02
2018-03-14T05:58:02.907Z,97170.00
2018-03-14T06:00:32.567Z,97175.67
2018-03-14T06:03:02.284Z,97172.00
2018-03-14T06:05:32.000Z,97177.38
2018-03-14T06:08:01.776Z,97183.86
2018-03-14T06:10:33.888Z,97179.67
2018-03-14T06:13:03.642Z,97188.25
2018-03-14T06:15:34.131Z,97185.33
2018-03-14T06:18:03.887Z,97200.47
2018-03-14T06:20:34.460Z,97201.20
2018-03-14T06:23:05.617Z,97204.00
2018-03-14T06:25:36.320Z,97204.77
2018-03-14T06:28:06.425Z,97206.98
2018-03-14T06:30:55.722Z,97205.27
2018-03-14T06:33:33.405Z,97208.96
2018-03-14T06:36:05.063Z,97207.35
2018-03-14T06:39:09.018Z,97211.19
2018-03-14T06:44:46.338Z,97218.52
2018-03-14T06:47:17.312Z,97227.73
2018-03-14T06:50:00.313Z,97226.12
2018-03-14T06:52:31.000Z,97225.77
2018-03-14T06:55:00.781Z,97229.38
2018-03-14T06:57:30.294Z,97225.82
2018-03-14T07:00:18.682Z,97237.00
2018-03-14T07:02:49.154Z,97241.05
2018-03-14T07:05:37.499Z,97234.55
2018-03-14T07:08:07.006Z,97247.07
2018-03-14T07:10:36.627Z,97241.56
2018-03-14T07:13:06.361Z,97250.28
2018-03-14T07:15:36.896Z,97243.11
2018-03-14T07:18:06.515Z,97250.59
2018-03-14T07:20:36.116Z,97246.38
2018-03-14T07:23:05.928Z,97251.52
2018-03-14T07:25:35.637Z,97246.86
2018-03-14T07:28:05.253Z,97253.35
2018-03-14T07:30:34.831Z,97247.44
2018-03-14T07:33:04.517Z,97247.08
2018-03-14T07:35:34.190Z,97246.92
2018-03-14T07:38:03.753Z,97248.55
2018-03-14T07:40:33.477Z,97245.70
2018-03-14T07:43:03.089Z,97242.17
2018-03-14T07:45:32.749Z,97247.11
2018-03-14T07:48:02.386Z,97247.09
2018-03-14T07:50:32.238Z,97244.90
2018-03-14T07:53:01.919Z,97246.00
2018-03-14T07:55:31.757Z,97243.44
2018-03-14T07:58:01.607Z,97240.59
2018-03-14T08:00:34.179Z,97246.23
2018-03-14T08:03:04.668Z,97235.02
2018-03-14T08:05:37.208Z,97242.94
2018-03-14T08:08:07.895Z,97245.84
2018-03-14T08:10:37.569Z,97244.70
2018-03-14T08:13:07.335Z,97239.41
2018-03-14T08:15:37.817Z,97236.22
2018-03-14T08:18:07.552Z,97232.23
2018-03-14T08:20:37.086Z,97234.27
2018-03-14T08:23:06.758Z,97238.49
2018-03-14T08:25:36.379Z,97236.48
2018-03-14T08:28:05.950Z,97238.80
2018-03-14T08:30:35.795Z,97241.04
2018-03-14T08:33:06.153Z,97237.02
2018-03-14T08:35:36.170Z,97239.36
2018-03-14T08:38:06.972Z,97233.66
2018-03-14T08:40:37.812Z,97239.23
2018-03-14T08:43:07.844Z,97239.87
2018-03-14T08:45:38.254Z,97240.00
2018-03-14T08:48:08.011Z,97246.20
2018-03-14T08:50:37.779Z,97249.13
2018-03-14T08:53:07.598Z,97246.90
2018-03-14T08:55:45.983Z,97241.70
2018-03-14T08:58:15.944Z,97246.00
2018-03-14T09:00:45.800Z,97249.41
2018-03-14T09:03:16.833Z,97247.42
2018-03-14T09:05:51.151Z,97247.52
2018-03-14T09:08:21.129Z,97256.44
2018-03-14T09:10:50.943Z,97255.00
2018-03-14T09:13:20.456Z,97248.04
2018-03-14T09:15:51.647Z,97265.86
2018-03-14T09:18:21.516Z,97261.75
2018-03-14T09:20:51.390Z,97261.06
2018-03-14T09:23:20.952Z,97260.70
2018-03-14T09:25:52.048Z,97261.25
2018-03-14T09:28:21.606Z,97265.59
2018-03-14T09:30:53.519Z,97265.19
2018-03-14T09:33:23.310Z,97271.88
2018-03-14T09:35:53.132Z,97270.31
2018-03-14T09:38:23.887Z,97269.56
2018-03-14T09:40:54.235Z,97275.20
2018-03-14T09:43:24.202Z,97276.67
2018-03-14T09:45:55.785Z,97276.05
2018-03-14T09:48:29.422Z,97289.11
2018-03-14T09:51:01.910Z,97284.94
2018-03-14T09:53:32.614Z,97281.05
2018-03-14T09:56:08.356Z,97293.80
2018-03-14T09:58:38.056Z,97282.66
2018-03-14T10:01:10.716Z,97277.26
2018-03-14T10:03:45.884Z,97270.95
2018-03-14T10:06:17.904Z,97270.41
2018-03-14T10:08:48.295Z,97268.24
2018-03-14T10:11:25.616Z,97271.53
2018-03-14T10:13:56.566Z,97266.48
2018-03-14T10:16:26.553Z,97256.69
2018-03-14T10:18:56.524Z,97262.13
2018-03-14T10:21:27.095Z,97257.82
2018-03-14T10:23:56.724Z,97255.02
2018-03-14T10:26:27.164Z,97251.75
2018-03-14T10:28:56.987Z,97244.19
2018-03-14T10:31:26.939Z,97244.81
2018-03-14T10:33:56.751Z,97235.99
2018-03-14T10:36:26.739Z,97245.44
2018-03-14T10:38:56.831Z,97239.61
2018-03-14T10:41:30.610Z,97239.71
2018-03-14T10:47:32.378Z,97235.48
2018-03-14T10:53:25.550Z,97232.08
2018-03-14T10:55:55.783Z,97234.52
2018-03-14T10:58:25.584Z,97231.59
2018-03-14T11:01:12.062Z,97225.56
2018-03-14T11:03:45.707Z,97230.84
2018-03-14T11:06:16.588Z,97228.89
2018-03-14T11:08:47.023Z,97229.80
2018-03-14T11:11:16.528Z,97228.30
2018-03-14T11:13:46.129Z,97230.22
2018-03-14T11:16:15.825Z,97221.95
2018-03-14T11:18:47.409Z,97225.78
2018-03-14T11:21:17.110Z,97217.95
2018-03-14T11:23:47.256Z,97218.70
2018-03-14T11:26:16.970Z,97219.93
2018-03-14T11:28:46.637Z,97222.64
2018-03-14T11:31:17.268Z,97221.90
2018-03-14T11:33:47.816Z,97211.36
2018-03-14T11:36:18.351Z,97197.47
2018-03-14T11:38:48.692Z,97200.02
2018-03-14T11:41:18.259Z,97191.98
2018-03-14T11:43:48.684Z,97192.61
2018-03-14T11:46:19.132Z,97189.94
2018-03-14T11:48:48.834Z,97183.68
2018-03-14T11:51:21.234Z,97180.19
2018-03-14T11:53:55.035Z,97176.17
2018-03-14T11:56:25.342Z,97176.73
2018-03-14T11:58:55.089Z,97167.08
2018-03-14T12:01:24.702Z,97168.63
2018-03-14T12:03:54.616Z,97165.09
2018-03-14T12:06:24.421Z,97162.69
2018-03-14T12:08:54.325Z,97163.63
2018-03-14T12:11:24.084Z,97155.78
2018-03-14T12:13:54.082Z,97159.58
2018-03-14T12:16:23.754Z,97151.66
2018-03-14T12:18:53.365Z,97141.97
2018-03-14T12:21:23.199Z,97144.72
2018-03-14T12:23:52.821Z,97135.45
2018-03-14T12:26:22.499Z,97126.19
2018-03-14T12:28:53.064Z,97128.14
2018-03-14T12:31:22.868Z,97118.64
2018-03-14T12:33:52.570Z,97114.16
2018-03-14T12:36:22.820Z,97112.87
2018-03-14T12:38:52.511Z,97107.91
2018-03-14T12:41:22.192Z,97110.11
2018-03-14T12:43:51.931Z,97104.66
2018-03-14T12:46:21.719Z,97108.30
2018-03-14T12:48:51.226Z,97101.45
2018-03-14T12:51:20.849Z,97109.36
2018-03-14T12:53:50.783Z,97099.69
2018-03-14T12:56:21.400Z,97096.80
2018-03-14T12:58:51.203Z,97097.85
2018-03-14T13:01:20.810Z,97086.47
2018-03-14T13:03:51.333Z,97086.19
2018-03-14T13:06:20.989Z,97089.36
2018-03-14T13:08:51.151Z,97089.41
2018-03-14T13:11:21.786Z,97085.81
2018-03-14T13:13:51.654Z,97074.72
2018-03-14T13:16:21.284Z,97078.11
2018-03-14T13:18:51.775Z,97074.63
2018-03-14T13:21:29.209Z,97075.04
2018-03-14T13:23:59.079Z,97070.36
2018-03-14T13:26:28.682Z,97070.55
2018-03-14T13:28:58.395Z,97065.27
2018-03-14T13:31:28.211Z,97066.17
2018-03-14T13:33:59.008Z,97066.03
2018-03-14T13:36:28.518Z,97062.27
2018-03-14T13:38:59.536Z,97065.99
2018-03-14T13:41:29.149Z,97056.52
2018-03-14T13:43:59.629Z,97055.71
2018-03-14T13:46:30.901Z,97040.61
2018-03-14T13:52:10.415Z,97039.76
2018-03-14T13:54:43.866Z,97034.77
2018-03-14T13:57:15.060Z,97036.59
2018-03-14T13:59:44.691Z,97031.77
2018-03-14T14:02:14.215Z,97033.47
2018-03-14T14:04:44.627Z,97033.92
2018-03-14T14:07:16.576Z,97032.64
2018-03-14T14:09:46.764Z,97026.23
2018-03-14T14:12:18.910Z,97030.30
2018-03-14T14:14:49.218Z,97020.99
2018-03-14T14:17:19.181Z,97024.77
2018-03-14T14:19:48.786Z,97023.86
2018-03-14T14:22:20.812Z,97020.86
2018-03-14T14:24:50.497Z,97013.66
2018-03-14T14:27:22.763Z,97017.25
2018-03-14T14:29:52.519Z,97019.49
2018-03-14T14:35:24.874Z,97019.57
2018-03-14T14:37:54.584Z,97014.79
2018-03-14T14:40:29.492Z,97014.48
2018-03-14T14:43:03.302Z,97016.31
2018-03-14T14:45:34.790Z,97020.03
2018-03-14T14:48:34.957Z,97014.95
2018-03-14T14:51:08.588Z,97013.73
2018-03-14T14:53:39.496Z,97006.17
2018-03-14T14:56:09.878Z,97003.98
2018-03-14T14:58:39.586Z,97009.20
2018-03-14T15:01:09.216Z,97011.13
2018-03-14T15:03:40.520Z,97009.16
2018-03-14T15:06:10.164Z,97005.58
2018-03-14T15:08:39.827Z,97008.11
2018-03-14T15:11:09.634Z,96998.81
2018-03-14T15:13:39.154Z,97003.73
2018-03-14T15:16:13.336Z,96999.79
2018-03-14T15:18:43.673Z,97002.28
2018-03-14T15:21:13.473Z,97001.46
2018-03-14T15:23:44.153Z,97001.36
2018-03-14T15:26:13.866Z,96997.55
2018-03-14T15:28:44.727Z,96996.30
2018-03-14T15:31:14.305Z,96997.08
2018-03-14T15:33:44.094Z,96995.70
2018-03-14T15:36:13.976Z,96993.90
2018-03-14T15:38:44.376Z,96997.87
2018-03-14T15:41:14.903Z,96993.27
2018-03-14T15:43:45.067Z,96996.11
2018-03-14T15:46:15.635Z,96987.16
2018-03-14T15:48:57.921Z,96986.38
2018-03-14T15:51:30.532Z,96988.95
2018-03-14T15:54:00.503Z,96987.16
2018-03-14T15:56:30.863Z,96980.39
2018-03-14T15:59:01.170Z,96983.64
2018-03-14T16:01:31.017Z,96984.70
2018-03-14T16:04:00.794Z,96979.79
2018-03-14T16:06:30.719Z,96982.37
2018-03-14T16:09:02.013Z,96981.83
2018-03-14T16:11:32.143Z,96975.69
2018-03-14T16:14:02.075Z,96974.62
2018-03-14T16:16:32.580Z,96975.23
2018-03-14T16:19:04.766Z,96982.72
2018-03-14T16:21:42.260Z,96990.72
2018-03-14T16:24:34.812Z,96982.91
2018-03-14T16:27:17.984Z,96983.20
2018-03-14T16:30:16.462Z,96984.33
2018-03-14T16:33:20.630Z,96986.80
2018-03-14T16:36:00.760Z,96994.28
2018-03-14T16:38:30.682Z,96999.44
2018-03-14T16:41:01.469Z,96999.28
2018-03-14T16:43:31.930Z,97013.23
2018-03-14T16:46:03.694Z,97016.47
2018-03-14T16:48:33.514Z,97025.56
2018-03-14T16:51:03.239Z,97025.40
2018-03-14T16:53:33.622Z,97024.91
2018-03-14T16:56:03.240Z,97024.91
2018-03-14T16:58:33.170Z,97031.83
2018-03-14T17:01:02.790Z,97031.16
2018-03-14T17:03:32.427Z,97037.92
2018-03-14T17:06:02.078Z,97038.52
2018-03-14T17:08:32.747Z,97042.05
2018-03-14T17:11:03.916Z,97043.66
2018-03-14T17:13:33.803Z,97056.20
2018-03-14T17:16:03.894Z,97052.83
2018-03-14T17:18:33.543Z,97051.28
2018-03-14T17:21:03.110Z,97056.14
2018-03-14T17:23:32.932Z,97054.75
2018-03-14T17:26:04.267Z,97065.38
2018-03-14T17:28:43.762Z,97064.01
2018-03-14T17:31:14.113Z,97065.89
2018-03-14T17:33:43.621Z,97063.43
2018-03-14T17:36:13.627Z,97065.70
2018-03-14T17:38:43.459Z,97071.41
2018-03-14T17:41:13.127Z,97079.73
2018-03-14T17:43:42.647Z,97083.72
2018-03-14T17:46:13.031Z,97074.52
2018-03-14T17:48:42.632Z,97085.04
2018-03-14T17:51:12.209Z,97082.20
2018-03-14T17:53:42.050Z,97090.17
2018-03-14T17:56:11.736Z,97095.88
2018-03-14T17:58:42.253Z,97098.72
2018-03-14T18:01:13.231Z,97102.50
2018-03-14T18:03:44.612Z,97095.50
2018-03-14T18:06:14.184Z,97101.42
2018-03-14T18:08:44.664Z,97100.10
2018-03-14T18:11:15.103Z,97103.59
2018-03-14T18:13:45.054Z,97103.14
2018-03-14T18:16:14.617Z,97097.31
2018-03-14T18:18:45.613Z,97108.66
2018-03-14T18:21:16.243Z,97108.33
2018-03-14T18:23:47.634Z,97108.30
2018-03-14T18:26:18.328Z,97110.02
2018-03-14T18:28:47.889Z,97109.50
2018-03-14T18:31:17.643Z,97115.66
2018-03-14T18:33:47.410Z,97111.73
2018-03-14T18:36:17.886Z,97110.53
2018-03-14T18:38:47.742Z,97105.89
2018-03-14T18:41:17.267Z,97109.63
2018-03-14T18:43:46.776Z,97102.34
2018-03-14T18:46:31.651Z,97111.21
2018-03-14T18:49:02.402Z,97103.05
2018-03-14T18:51:33.761Z,97114.88
2018-03-14T18:54:07.752Z,97112.04
2018-03-14T18:56:37.681Z,97111.06
2018-03-14T18:59:07.394Z,97114.25
2018-03-14T19:01:37.109Z,97118.91
2018-03-14T19:04:06.650Z,97114.91
2018-03-14T19:06:37.036Z,97122.52
2018-03-14T19:09:06.722Z,97118.32
2018-03-14T19:11:36.221Z,97118.02
2018-03-14T19:14:06.142Z,97118.28
2018-03-14T19:16:36.783Z,97118.91
2018-03-14T19:19:12.940Z,97115.62
2018-03-14T19:21:44.572Z,97113.55
2018-03-14T19:24:15.867Z,97116.30
2018-03-14T19:26:45.480Z,97120.66
2018-03-14T19:29:14.960Z,97123.79
2018-03-14T19:31:44.697Z,97128.97
2018-03-14T19:34:14.682Z,97135.23
2018-03-14T19:36:50.742Z,97122.50
2018-03-14T19:39:23.873Z,97126.33
2018-03-14T19:42:00.416Z,97122.85
2018-03-14T19:44:31.608Z,97124.97
2018-03-14T19:47:03.545Z,97122.02
2018-03-14T19:49:33.459Z,97117.98
2018-03-14T19:52:02.965Z,97117.00
2018-03-14T19:54:32.570Z,97128.65
2018-03-14T19:57:02.446Z,97127.19
2018-03-14T19:59:31.981Z,97125.50
2018-03-14T20:02:01.711Z,97118.35
2018-03-14T20:04:31.446Z,97124.87
2018-03-14T20:07:01.028Z,97123.09
2018-03-14T20:09:30.610Z,97125.92
2018-03-14T20:12:00.522Z,97127.35
2018-03-14T20:14:30.130Z,97129.75
2018-03-14T20:16:59.944Z,97134.60
2018-03-14T20:19:30.415Z,97129.21
2018-03-14T20:22:01.262Z,97142.67
2018-03-14T20:24:31.476Z,97131.45
2018-03-14T20:27:01.750Z,97126.58
2018-03-14T20:29:47.003Z,97121.39
2018-03-14T20:32:17.377Z,97125.23
2018-03-14T20:34:47.549Z,97128.58
2018-03-14T20:37:18.057Z,97136.32
2018-03-14T20:39:47.743Z,97139.95
2018-03-14T20:42:17.232Z,97140.99
2018-03-14T20:44:46.789Z,97138.38
2018-03-14T20:47:16.370Z,97130.75
2018-03-14T20:49:46.893Z,97115.87
2018-03-14T20:52:16.706Z,97115.75
2018-03-14T20:54:46.176Z,97118.42
2018-03-14T20:57:16.615Z,97115.39
2018-03-14T20:59:46.662Z,97127.11
2018-03-14T21:02:18.048Z,97120.92
2018-03-14T21:04:47.844Z,97122.99
2018-03-14T21:07:17.635Z,97130.39
2018-03-14T21:09:47.245Z,97121.69
2018-03-14T21:12:16.719Z,97118.02
2018-03-14T21:14:46.328Z,97111.89
2018-03-14T21:17:16.134Z,97109.23
2018-03-14T21:19:46.358Z,97101.84
2018-03-14T21:22:16.101Z,97108.03
2018-03-14T21:24:45.794Z,97108.36
2018-03-14T21:27:15.589Z,97113.23
2018-03-14T21:29:45.746Z,97109.11
2018-03-14T21:32:16.317Z,97108.12
2018-03-14T21:34:46.088Z,97108.51
2018-03-14T21:37:16.772Z,97112.80
2018-03-14T21:39:46.392Z,97116.64
2018-03-14T21:42:17.058Z,97122.39
2018-03-14T21:44:46.625Z,97124.14
2018-03-14T21:47:16.930Z,97131.91
2018-03-14T21:49:47.686Z,97135.25
2018-03-14T21:52:17.926Z,97135.39
2018-03-14T21:54:49.014Z,97129.80
2018-03-14T21:57:20.609Z,97124.30
2018-03-14T21:59:51.168Z,97130.70
2018-03-14T22:02:21.077Z,97133.11
2018-03-14T22:04:51.816Z,97141.98
2018-03-14T22:07:21.736Z,97135.33
2018-03-14T22:09:51.463Z,97138.35
2018-03-14T22:12:21.301Z,97125.70
2018-03-14T22:14:51.800Z,97121.57
2018-03-14T22:17:21.399Z,97117.69
2018-03-14T22:19:51.435Z,97118.39
2018-03-14T22:22:27.114Z,97107.77
2018-03-14T22:24:56.616Z,97111.17
2018-03-14T22:27:28.232Z,97113.60
2018-03-14T22:29:57.833Z,97112.69
2018-03-14T22:32:27.361Z,97111.17
2018-03-14T22:34:56.848Z,97104.66
2018-03-14T22:37:26.407Z,97100.91
2018-03-14T22:39:57.146Z,97106.36
2018-03-14T22:42:26.927Z,97102.41
2018-03-14T22:44:56.531Z,97098.17
2018-03-14T22:47:26.233Z,97097.53
2018-03-14T22:49:55.728Z,97115.62
2018-03-14T22:52:26.526Z,97102.54
2018-03-14T22:54:59.477Z,97102.81
2018-03-14T22:57:29.036Z,97103.42
2018-03-14T22:59:59.231Z,97109.12
2018-03-14T23:02:29.752Z,97093.09
2018-03-14T23:04:59.728Z,97087.28
2018-03-14T23:07:29.416Z,97093.23
2018-03-14T23:09:59.757Z,97091.38
2018-03-14T23:12:30.462Z,97091.31
2018-03-14T23:15:00.387Z,97090.28
2018-03-14T23:17:30.879Z,97093.20
2018-03-14T23:20:01.197Z,97087.91
2018-03-14T23:22:31.452Z,97091.47
2018-03-14T23:25:03.005Z,97089.78
2018-03-14T23:27:32.607Z,97094.53
2018-03-14T23:30:03.500Z,97093.00
2018-03-14T23:32:33.029Z,97093.88
2018-03-14T23:35:02.643Z,97098.71
2018-03-14T23:37:33.767Z,97093.25
2018-03-14T23:40:03.548Z,97091.37
2018-03-14T23:42:33.177Z,97094.81
2018-03-14T23:45:02.889Z,97086.61
2018-03-14T23:47:34.645Z,97091.08
2018-03-14T23:50:04.924Z,97095.23
2018-03-14T23:52:36.453Z,97095.27
2018-03-14T23:55:09.912Z,97110.34
2018-03-14T23:57:43.126Z,97101.34
